• Join FlightAware (Why Join?)
  • Login
  • US Flag 
10:36AM EDT


 

Airport Tracker/Info


-or-


 

Live Flight TrackerFlight Track Log ✈ ASQ4179 ✈ 28-Apr-2013 ✈ KRIC - KEWR

Flight Track Log - Related Links

Times and Time Zones

All times are in EDT time to prevent confusion due to time zone crossing. See the ASQ4179 flight status page for this flight to view local times or setup timezone preferences in your user account.

Time Position Orientation Groundspeed Altitude Reporting Facility
EDT Latitude Longitude Course Direction KTS MPH feet Rate Location/Type
07:04AM 37.4833 -77.3000 38° Northeast 170 196 1,100  Level Potomac TRACON
07:05AM 37.4775 -77.2719 105° East 173 199 1,900 2,160 Climbing Washington Center
07:07AM 37.6704 -77.1296 38° Northeast  Level FlightAware Approximate
07:07AM 37.5356 -77.1397 61° Northeast 209 241 6,300  Level Washington Center
07:08AM 37.7296 -77.0704 38° Northeast  Level FlightAware Approximate
07:08AM 37.5697 -77.0592 62° Northeast 234 269 8,400  Level Washington Center
07:09AM 37.7888 -77.0112 38° Northeast  Level FlightAware Approximate
07:09AM 37.6083 -76.9708 61° Northeast 262 302 10,500  Level Washington Center
07:10AM 37.6511 -76.8797 59° Northeast 285 328 11,800 1,260 Climbing Washington Center
07:11AM 37.6961 -76.7728 62° Northeast 313 360 13,000 1,260 Climbing Washington Center
07:12AM 37.7697 -76.6900 42° Northeast 343 395 14,300 1,260 Climbing Washington Center
07:12AM 37.8681 -76.6756 North 322 371 15,500 1,200 Climbing Washington Center
07:14AM 37.9603 -76.6189 26° Northeast 339 390 16,700 720 Climbing Washington Center
07:15AM 38.0547 -76.5569 27° Northeast 354 407 17,000 120 Climbing Washington Center
07:16AM 38.1469 -76.4947 28° Northeast 367 422 17,000  Level Washington Center
07:17AM 38.2392 -76.4325 28° Northeast 367 422 17,000  Level Washington Center
07:18AM 38.3247 -76.3989 17° North 366 421 17,000  Level Washington Center
07:19AM 38.4272 -76.3789 North 356 410 17,000  Level Washington Center
07:20AM 38.5314 -76.3586 North 367 422 17,000  Level Washington Center
07:20AM 38.6339 -76.3383 North 373 429 17,000  Level Washington Center
07:21AM 38.7403 -76.3183 North 378 435 17,000  Level Washington Center
07:23AM 38.8444 -76.2981 North 378 435 17,000  Level Washington Center
07:24AM 38.9511 -76.2775 North 378 435 17,000 -60 Level Washington Center
07:25AM 39.0553 -76.2597 North 378 435 16,900 -60 Descending Washington Center
07:26AM 39.1556 -76.2206 17° North 378 435 16,900  Level Washington Center
07:27AM 39.2497 -76.1222 39° Northeast 367 422 16,900  Level Washington Center
07:28AM 39.3253 -76.0289 44° Northeast 372 428 16,900  Level Washington Center
07:29AM 39.4025 -75.9381 42° Northeast 372 428 16,900  Level Washington Center
07:30AM 39.4819 -75.8417 43° Northeast 372 428 16,900  Level Washington Center
07:31AM 39.5614 -75.7503 42° Northeast 372 428 16,900  Level Washington Center
07:32AM 39.6386 -75.6589 42° Northeast 372 428 16,900  Level Washington Center
07:32AM 39.7156 -75.5644 43° Northeast 372 428 16,900  Level Washington Center
07:34AM 39.7928 -75.4700 43° Northeast 372 428 17,000 -660 Climbing Washington Center
07:35AM 39.8717 -75.3778 42° Northeast 372 428 15,600 -1,680 Descending Washington Center
07:36AM 39.9486 -75.2856 43° Northeast 367 422 13,600 -2,040 Descending Washington Center
07:36AM 40.0192 -75.1986 43° Northeast 367 422 11,700 -960 Descending Washington Center
07:38AM 40.1333 -75.0500 45° Northeast 301 346 11,100 -840 Descending New York TRACON
07:39AM 40.2000 -74.9667 44° Northeast 286 329 9,300 -1,380 Descending New York TRACON
07:40AM 40.2667 -74.9000 37° Northeast 272 313 8,100 -840 Descending New York TRACON
07:42AM 40.3241 -74.7846 45° Northeast  Level FlightAware Approximate
07:43AM 40.4000 -74.7000 114° Southeast 265 305 6,000  Level New York TRACON
07:45AM 40.4652 -74.5824 49° Northeast  Level Estimated
07:48AM 40.7333 -74.5000 114° Southeast 261 300 5,100  Level New York TRACON
07:49AM 40.6833 -74.1667 114° Southeast  Level FlightAware Approximate
07:49AM 40.7833 -74.4333 45° Northeast 258 297 4,200  Level New York TRACON
07:50AM 40.8333 -74.3500 52° Northeast 267 307 4,100 -60 Descending New York TRACON
07:51AM 40.8333 -74.2833 90° East 268 308 4,100 -540 Level New York TRACON
07:52AM 40.6833 -74.1667 114° Southeast  Level FlightAware Approximate
07:53AM 40.6925 -74.1687 114° Southeast  Level Estimated
07:53AM 40.8000 -74.1167 105° East 211 243 2,500  Level New York TRACON
07:54AM 40.6925 -74.1687 114° Southeast  Level Estimated